Birmingham, AL (35201)

12:24 PM CDT on July 28, 2016 (GMT -0500)
UAB HHB | | Change Station

Elev 617 ft 33.50 °N, 86.81 °W | Updated 60 seconds ago

Mostly Cloudy
Mostly Cloudy
82.9 °F
Feels Like 90 °F
N
17.0
Wind Variable Wind from NNW
Gusts 23.0 mph

Today
High -- | Low -- °F
--% Chance of Precip.
Yesterday
High -- | Low -- °F
Precip. -- in
Pressure 30.02 in
Visibility 10.0 miles
Clouds Scattered Clouds 2600 ft
Mostly Cloudy 3600 ft
Heat Index 90 °F
Dew Point 75 °F
Humidity 76%
Rainfall 0.00 in
Snow Depth Not available.
5:57 AM 7:49 PM
Waning Crescent, 30% visible
METAR KBHM 281653Z 21011G18KT 10SM SCT026 BKN036 29/22 A3004 RMK AO2 SLP164 T02890222
Pressure 30.02 in
Visibility 10.0 miles
Clouds Scattered Clouds 2600 ft
Mostly Cloudy 3600 ft
Heat Index 90 °F
Dew Point 75 °F
Humidity 76%
Rainfall 0.00 in
Snow Depth Not available.
5:57 AM 7:49 PM
Waning Crescent, 30% visible
METAR KBHM 281653Z 21011G18KT 10SM SCT026 BKN036 29/22 A3004 RMK AO2 SLP164 T02890222

10-Day Weather Forecast

Almanac

Astronomy

Jul. 28, 2016 Rise Set
Actual Time
Civil Twilight
Nautical Twilight
Astronomical Twilight
Moon
Length of Visible Light
Length of Day
Tomorrow will be .
, % of the Moon is Illuminated

Today's Extremes

State Highs State Lows

Community

WunderPhotos

Upload Photos

1,928,163 photos uploaded!

WunderBlog® & News

Nearby

Air Quality

  Air Quality AQ Index Pollutant
Not available.

Snow Depth

Station Depth Elevation

Earthquake Activity

City Distance Mag. Time & Date
Minimum magnitude displayed is 2.5.

Coastal Water Temperatures

Place Temperature

Stations

Nearby Weather Stations

Station Location Temp. Windchill Dew Point Humidity Wind Precip. Elev Updated Type
                   

Watches & Warnings

There are currently no watches in effect.